Terminal Aerodrome Forecast
Issued by NWS Twin Cities, MN

Home | Current Version | Previous Version | Text Only | Print | Product List | Glossary On
Versions: 1 2 3 4 5 6 7 8 9 10 11 12 13 14 15 16 17 18 19 20 21 22 23 24 25 26 27
000
FTUS43 KMPX 250200 AAA
TAFMSP
TAF AMD
KMSP 250253Z 2503/2606 24005KT P6SM FEW250
     FM250600 28006KT P6SM BKN250
     FM250900 30007KT P6SM SCT250
     FM251700 30014G22KT P6SM FEW250
     FM260000 30009KT P6SM SKC=

USA.gov is the U.S. government's official web portal to all federal, state and local government web resources and services.